Terminal Aerodrome Forecast
Issued by NWS Missoula, MT

Home | Current Version | Previous Version | Text Only | Print | Product List | Glossary On
Versions: 1 2 3 4 5 6 7 8 9 10 11 12 13 14 15 16 17 18 19 20
000
FTUS45 KMSO 260537
TAFMSO
TAF
KMSO 260537Z 2606/2706 30003KT 2SM -SN BR SCT005 BKN010 OVC015
     FM261300 VRB04KT 3SM -RASN BR SCT003 OVC020
     FM261700 VRB04KT P6SM VCSH SCT060 OVC110=

USA.gov is the U.S. government's official web portal to all federal, state and local government web resources and services.